createdAt,value
2019-04-01T00:08:54.869Z,8.58
2019-04-01T00:19:51.766Z,8.50
2019-04-01T00:30:51.911Z,8.15
2019-04-01T00:41:53.601Z,7.97
2019-04-01T00:52:51.992Z,7.86
2019-04-01T01:03:50.958Z,7.75
2019-04-01T01:14:47.428Z,7.59
2019-04-01T01:25:45.790Z,7.41
2019-04-01T01:36:49.645Z,7.13
2019-04-01T01:47:49.166Z,7.16
2019-04-01T01:58:50.683Z,7.01
2019-04-01T02:09:55.334Z,6.80
2019-04-01T02:20:55.870Z,6.72
2019-04-01T02:31:59.366Z,6.57
2019-04-01T02:42:58.196Z,6.57
2019-04-01T02:53:56.646Z,6.68
2019-04-01T03:05:01.411Z,6.78
2019-04-01T03:16:00.621Z,7.05
2019-04-01T03:27:01.130Z,7.09
2019-04-01T03:38:05.994Z,7.27
2019-04-01T03:49:04.781Z,7.49
2019-04-01T04:00:05.811Z,7.52
2019-04-01T04:11:09.951Z,7.57
2019-04-01T04:22:12.484Z,7.57
2019-04-01T04:33:14.861Z,7.83
2019-04-01T04:44:16.063Z,7.90
2019-04-01T04:55:17.881Z,8.01
2019-04-01T05:06:18.527Z,8.06
2019-04-01T05:17:15.680Z,8.24
2019-04-01T05:28:19.491Z,8.36
2019-04-01T05:39:21.590Z,8.79
2019-04-01T05:50:20.677Z,9.13
2019-04-01T06:01:26.013Z,9.61
2019-04-01T06:12:29.030Z,10.06
2019-04-01T06:23:30.206Z,10.37
2019-04-01T06:34:34.836Z,10.59
2019-04-01T06:45:33.546Z,10.80
2019-04-01T06:56:30.382Z,11.18
2019-04-01T07:07:31.127Z,11.68
2019-04-01T07:18:28.789Z,12.12
2019-04-01T07:29:30.965Z,13.06
2019-04-01T07:40:31.660Z,13.48
2019-04-01T07:51:28.991Z,14.10
2019-04-01T08:02:29.833Z,14.83
2019-04-01T08:13:30.203Z,14.91
2019-04-01T08:24:31.865Z,15.01
2019-04-01T08:35:35.343Z,15.51
2019-04-01T08:46:35.347Z,15.83
2019-04-01T08:57:39.195Z,15.85
2019-04-01T09:08:37.980Z,16.12
2019-04-01T09:19:35.905Z,16.93
2019-04-01T09:30:39.647Z,17.32
2019-04-01T09:41:44.166Z,17.35
2019-04-01T09:52:42.484Z,18.14
2019-04-01T10:03:47.170Z,18.67
2019-04-01T10:14:49.565Z,18.68
2019-04-01T10:25:51.783Z,19.09
2019-04-01T10:36:52.177Z,19.39
2019-04-01T10:47:52.659Z,19.21
2019-04-01T10:58:56.492Z,20.24
2019-04-01T11:09:57.603Z,20.00
2019-04-01T11:20:57.029Z,19.78
2019-04-01T11:31:59.097Z,19.95
2019-04-01T11:42:59.127Z,22.42
2019-04-01T11:53:59.261Z,21.23
2019-04-01T12:04:59.579Z,21.82
2019-04-01T12:15:59.366Z,22.37
2019-04-01T12:26:41.335Z,22.53
2019-04-01T12:37:23.648Z,22.69
2019-04-01T12:48:20.573Z,20.71
2019-04-01T12:59:21.845Z,19.57
2019-04-01T13:10:23.719Z,19.69
2019-04-01T13:21:25.732Z,20.62
2019-04-01T13:32:25.154Z,19.75
2019-04-01T13:43:17.044Z,19.08
2019-04-01T13:54:14.690Z,19.13
2019-04-01T14:05:17.685Z,19.86
2019-04-01T14:16:28.418Z,21.12
2019-04-01T14:27:33.438Z,20.66
2019-04-01T14:38:35.586Z,20.75
2019-04-01T14:49:34.007Z,20.43
2019-04-01T15:00:30.637Z,19.25
2019-04-01T15:11:30.696Z,18.69
2019-04-01T15:22:27.323Z,18.43
2019-04-01T15:33:27.986Z,18.13
2019-04-01T15:44:24.234Z,18.16
2019-04-01T15:55:23.450Z,17.84
2019-04-01T16:06:23.061Z,17.67
2019-04-01T16:17:12.046Z,17.79
2019-04-01T16:28:13.493Z,17.43
2019-04-01T16:39:12.595Z,16.93
2019-04-01T16:50:04.516Z,16.52
2019-04-01T17:01:06.536Z,15.97
2019-04-01T17:12:01.775Z,15.38
2019-04-01T17:23:03.271Z,14.94
2019-04-01T17:34:01.207Z,14.17
2019-04-01T17:44:59.727Z,13.66
2019-04-01T17:55:55.673Z,12.99
2019-04-01T18:06:58.369Z,12.60
2019-04-01T18:17:53.288Z,12.05
2019-04-01T18:28:45.669Z,11.59
2019-04-01T18:39:47.527Z,11.02
2019-04-01T18:50:39.679Z,10.63
2019-04-01T19:01:35.538Z,10.33
2019-04-01T19:12:33.965Z,10.10
2019-04-01T19:23:33.673Z,9.72
2019-04-01T19:34:32.110Z,9.50
2019-04-01T19:45:30.043Z,9.55
2019-04-01T19:56:30.186Z,9.31
2019-04-01T20:07:32.029Z,9.34
2019-04-01T20:18:31.123Z,8.98
2019-04-01T20:29:33.314Z,8.82
2019-04-01T20:40:34.444Z,8.68
2019-04-01T20:51:31.681Z,8.42
2019-04-01T21:02:33.703Z,8.07
2019-04-01T21:13:35.171Z,7.93
2019-04-01T21:24:36.645Z,7.91
2019-04-01T21:35:38.129Z,7.55
2019-04-01T21:46:35.887Z,7.59
2019-04-01T21:57:38.874Z,7.30
2019-04-01T22:08:38.985Z,7.03
2019-04-01T22:19:34.736Z,6.86
2019-04-01T22:30:33.072Z,6.75
2019-04-01T22:41:32.962Z,6.66
2019-04-01T22:52:35.399Z,6.59
2019-04-01T23:03:37.825Z,6.33
2019-04-01T23:14:38.535Z,6.29
2019-04-01T23:25:36.723Z,6.42
2019-04-01T23:36:41.440Z,6.47
2019-04-01T23:47:39.635Z,6.75
2019-04-01T23:58:42.185Z,6.88
